Aviation Digital Data Service (ADDS)

Output produced by METARs form (1443 UTC 21 April 2021)
found at http://www.aviationweather.gov/metar/data/
 
TAPA 211400Z 09010KT 050V140 9999 VCSH SCT016 25/22 Q1018 NOSIG
TAPA 211329Z 11004KT 9999 VCSH SCT013 SCT036 25/23 Q1019 NOSIG
TAPA 211300Z 10009KT 050V150 9999 BKN013 SCT036 22/20 Q1019 NOSIG
TAPA 211200Z 10010KT 060V150 9999 BKN013 SCT036 24/21 Q1018 NOSIG
TAPA 211100Z 08012KT 040V120 9999 VCSH SCT014 SCT036 24/21 Q1018 NOSIG
TAF TAPA 211100Z 2112/2212 09013KT 9999 SCT018 SCT034 
     PROB40 
     TEMPO 2112/2124 09014G24KT SHRA 
       
TRPG 211400Z 07011KT 030V120 9999 BKN011 SCT038 24/23 Q1020
TRPG 211300Z 0907KT 360V120 9999 BKN014 SCT038 23/22 Q1020
TRPG 211200Z 12012KT 090V150 9999 -SHRA SCT007 BKN038 22/22 Q1019
TRPG 211100Z 08011KT 020V120 9999 -SHRA SCT004 SCT038 22/22 Q1018
TAF TRPG 211100Z 2112/2212 10014KT 9999 SCT018 SCT034 
     PROB40 
     TEMPO 2112/2124 10015G25KT SHRA 
       
TKPK 211400Z 10013G23KT 9999 -SHRA FEW006 BKN038 23/22 Q1019
TKPK 211300Z 11014KT 9999 -SHRA FEW010 BKN038 24/22 Q1019
TKPK 211200Z 08017KT 9999 FEW010 SCT016 24/22 Q1019
TKPK 211100Z COR 08017KT 9999 -SHRA FEW010 SCT016 23/22 Q1018
TKPK 211120Z 2112/2212 08012KT P6SM VCSH SCT018 BKN035 
     FM211430 07012G18KT P6SM SCT022 SCT050
       
TKPN 211400Z 11010KT 9999 -SHRA BKN015 BKN045 23/23 Q1019
TKPN 211300Z 09012KT 9999 VCSH BKN016 BKN045 23/23 Q1019
TKPN 211200Z 09014KT 9999 VCSH BKN014 BKN044 24/24 Q1018
TKPN 211100Z 12005KT 4000 SHRA BKN015 BKN044 23/23 Q1018
TAF TKPN 211100Z 2112/2212 09013KT 9999 SCT018 SCT034 
     PROB40 
     TEMPO 2112/2124 09014G24KT SHRA 
       
TQPF 211400Z 09018KT 9999 BKN018 28/22 Q1019
TQPF 211300Z 10018KT 9999 SCT018 27/22 Q1020
TQPF 211200Z 10016KT 9999 SCT016 27/22 Q1019
TQPF 211100Z 08015KT 9999 SCT018 26/21 Q1019
TAF TQPF 211100Z 2112/2212 08014KT 9999 SCT018 SCT034 
     PROB40 
     TEMPO 2112/2124 08015G25KT SHRA 
       
TUPJ 211400Z 10014KT 10SM BKN020 28/22 A3012 RMK Q1019 VIS16KM
TUPJ 211300Z 09011KT 10SM BKN019 28/21 A3011 RMK Q1019 VIS16KM
TUPJ 211200Z 08013KT 10 SM SCT019 27/21 A3009 RMK Q1019 VIS16KM
TUPJ 211100Z 10013KT 10SM SCT019 26/21 A3007 RMK Q1018 VIS16KM
TAF TUPJ 211100Z 2112/2212 10013G23KT 999 SCT018 SCT034 
     PROB40 
     TEMPO 2112/2124 10014G24KT SHRA